»·PEaware :: SWA273 KRNO-KLAS

SWA273 :: KRNO-KLAS

FLIGHT INFORMATION

Flight Status: Arrived
Operator:
Southwest Airlines
More flights by this operator :: More flights under this callsign
Pilot: Ion I. (24133)
Aircraft: BOEING 737-700
(B737)
More flights by this aircraft type
Origin: KRNO Reno/Tahoe Intl
United States
Destination: KLAS McCarran Intl
United States
More flights between these airports :: More routes between these airports
Route: +ZEFFR6 PESKE LIDAT J92 BTY SUNST4
File this flight plan on PilotEdge
Remarks:
Altitude:
(Current/Filed)
33,000ft
Speed:
(Current/Filed)
460kts
Departed: 09-Feb-20 09:37 PM
Arrived: 09-Feb-20 10:30 PM
Distance/Time
Traveled:
300nm/0:53
Distance/Time
To Go:
Arrived

Flight Plot

Page will automatically refresh every two minutes.

Flight plan parsing failed; only flown route is shown


Map Options




Map Legend


Flown Route
Filed Route
Departure Airport
Arrival Airport
Navaid (VOR, NDB)
Fix

Horizontal Profiles

Position Reports

Time Latitude Longitude Heading Altitude Ground
Speed
09-Feb-20 21:02 39.504420 -119.774214 15 4423ft 0kts
09-Feb-20 21:03 39.504420 -119.774214 15 4423ft 0kts
09-Feb-20 21:04 39.504420 -119.774214 15 4423ft 0kts
09-Feb-20 21:05 39.504420 -119.774214 15 4423ft 0kts
09-Feb-20 21:06 39.504420 -119.774214 15 4423ft 0kts
09-Feb-20 21:07 39.504420 -119.774214 15 4423ft 0kts
09-Feb-20 21:08 39.504420 -119.774214 15 4423ft 0kts
09-Feb-20 21:09 39.504420 -119.774214 15 4423ft 0kts
09-Feb-20 21:10 39.504420 -119.774214 15 4423ft 0kts
09-Feb-20 21:11 39.504420 -119.774214 15 4423ft 0kts
09-Feb-20 21:12 39.504420 -119.774214 15 4423ft 0kts
09-Feb-20 21:13 39.504420 -119.774214 15 4423ft 0kts
09-Feb-20 21:14 39.504420 -119.774214 15 4423ft 0kts
09-Feb-20 21:15 39.504420 -119.774214 15 4423ft 0kts
09-Feb-20 21:16 39.504420 -119.774214 15 4423ft 0kts
09-Feb-20 21:17 39.504420 -119.774214 15 4423ft 0kts
09-Feb-20 21:18 39.504420 -119.774214 15 4423ft 0kts
09-Feb-20 21:19 39.504420 -119.774214 15 4423ft 0kts
09-Feb-20 21:20 39.504420 -119.774214 15 4423ft 0kts
09-Feb-20 21:21 39.504420 -119.774214 15 4423ft 0kts
09-Feb-20 21:22 39.504420 -119.774214 15 4423ft 0kts
09-Feb-20 21:23 39.504420 -119.774214 15 4423ft 0kts
09-Feb-20 21:24 39.504420 -119.774214 15 4423ft 0kts
09-Feb-20 21:25 39.504420 -119.774214 15 4423ft 0kts
09-Feb-20 21:26 39.504420 -119.774214 15 4423ft 0kts
09-Feb-20 21:27 39.503873 -119.774235 337 4423ft 2kts
09-Feb-20 21:28 39.503713 -119.773394 278 4423ft 2kts
09-Feb-20 21:29 39.503716 -119.772984 270 4423ft 0kts
09-Feb-20 21:30 39.503716 -119.772984 270 4423ft 0kts
09-Feb-20 21:31 39.504044 -119.773366 292 4423ft 9kts
09-Feb-20 21:32 39.503700 -119.772528 89 4423ft 0kts
09-Feb-20 21:33 39.506467 -119.771475 1 4423ft 0kts
09-Feb-20 21:34 39.509647 -119.771489 359 4423ft 16kts
09-Feb-20 21:35 39.513775 -119.770452 94 4423ft 12kts
09-Feb-20 21:36 39.503550 -119.769253 180 4423ft 128kts
09-Feb-20 21:37 39.458136 -119.769777 180 6589ft 171kts
09-Feb-20 21:38 39.399034 -119.769610 176 8324ft 249kts
09-Feb-20 21:39 39.321714 -119.760123 147 10807ft 292kts
09-Feb-20 21:40 39.264187 -119.689612 121 14169ft 300kts
09-Feb-20 21:41 39.202623 -119.600555 122 15993ft 374kts
09-Feb-20 21:42 39.126021 -119.494151 127 18048ft 423kts
09-Feb-20 21:43 39.039085 -119.388253 126 20117ft 438kts
09-Feb-20 21:44 38.949719 -119.277124 125 22363ft 454kts
09-Feb-20 21:45 38.856986 -119.162908 125 24252ft 468kts
09-Feb-20 21:46 38.761766 -119.045585 124 25834ft 478kts
09-Feb-20 21:47 38.669809 -118.919954 123 27170ft 486kts
09-Feb-20 21:48 38.577175 -118.794566 124 28791ft 484kts
09-Feb-20 21:49 38.485354 -118.669854 124 30434ft 480kts
09-Feb-20 21:50 38.393517 -118.545925 127 31853ft 482kts
09-Feb-20 21:51 38.301013 -118.421913 130 33108ft 486kts
09-Feb-20 21:52 38.206395 -118.296173 130 33153ft 493kts
09-Feb-20 21:53 38.111714 -118.170062 130 33128ft 492kts
09-Feb-20 21:54 38.017386 -118.044743 130 33135ft 492kts
09-Feb-20 21:55 37.922648 -117.919332 131 33131ft 492kts
09-Feb-20 21:56 37.827793 -117.795279 131 33133ft 491kts
09-Feb-20 21:57 37.732651 -117.670930 132 33125ft 491kts
09-Feb-20 21:58 37.637877 -117.547002 131 33127ft 490kts
09-Feb-20 21:59 37.543158 -117.423874 132 33116ft 488kts
09-Feb-20 22:00 37.448061 -117.301600 134 33112ft 490kts
09-Feb-20 22:01 37.338142 -117.199843 145 33109ft 491kts
09-Feb-20 22:02 37.225243 -117.104631 145 33096ft 486kts
09-Feb-20 22:03 37.113599 -117.010283 145 33099ft 485kts
09-Feb-20 22:04 37.001583 -116.915552 145 33092ft 485kts
09-Feb-20 22:05 36.889536 -116.821817 146 32500ft 480kts
09-Feb-20 22:06 36.783071 -116.722249 134 31500ft 478kts
09-Feb-20 22:07 36.695670 -116.598524 130 30504ft 475kts
09-Feb-20 22:08 36.608894 -116.474192 131 29502ft 473kts
09-Feb-20 22:09 36.522925 -116.352718 132 27155ft 464kts
09-Feb-20 22:10 36.437750 -116.232735 133 23295ft 450kts
09-Feb-20 22:11 36.357726 -116.119793 131 19833ft 420kts
09-Feb-20 22:12 36.283064 -116.015353 130 16495ft 390kts
09-Feb-20 22:13 36.215145 -115.920221 127 16060ft 339kts
09-Feb-20 22:14 36.161258 -115.833751 130 15119ft 305kts
09-Feb-20 22:15 36.105738 -115.757430 131 13418ft 292kts
09-Feb-20 22:16 36.052225 -115.685366 131 11746ft 288kts
09-Feb-20 22:17 35.998041 -115.612083 131 10143ft 284kts
09-Feb-20 22:18 35.950136 -115.546736 131 9976ft 223kts
09-Feb-20 22:19 35.911820 -115.494489 131 9997ft 201kts
09-Feb-20 22:20 35.874285 -115.443114 131 9990ft 202kts
09-Feb-20 22:21 35.836508 -115.391220 131 9593ft 204kts
09-Feb-20 22:22 35.836199 -115.332005 52 8806ft 205kts
09-Feb-20 22:23 35.874946 -115.281958 26 7448ft 201kts
09-Feb-20 22:24 35.925798 -115.255610 25 5857ft 198kts
09-Feb-20 22:25 35.972010 -115.229401 25 4722ft 158kts
09-Feb-20 22:26 36.008651 -115.208358 24 3876ft 140kts
09-Feb-20 22:27 36.043039 -115.188776 20 3030ft 128kts
09-Feb-20 22:28 36.074000 -115.171124 20 2282ft 118kts
09-Feb-20 22:29 36.088324 -115.162987 30 2189ft 18kts
09-Feb-20 22:30 36.088464 -115.161062 115 2189ft 0kts
09-Feb-20 22:31 36.087546 -115.158613 114 2189ft 17kts
09-Feb-20 22:32 36.082772 -115.155651 155 2189ft 16kts
09-Feb-20 22:33 36.078783 -115.152911 91 2189ft 14kts
09-Feb-20 22:35 36.078635 -115.148991 95 2189ft 16kts
09-Feb-20 22:36 36.078949 -115.144834 359 2189ft 11kts
09-Feb-20 22:37 36.081212 -115.145137 335 2189ft 5kts
09-Feb-20 22:38 36.081241 -115.146043 254 2189ft 0kts
09-Feb-20 22:39 36.081229 -115.146095 254 2189ft 0kts

Navigation Log

Ident Type
Flight plan parsing failed, navigation log unavailable